createdAt,value
2019-04-06T00:00:34.821Z,10.48
2019-04-06T00:03:00.618Z,12.03
2019-04-06T00:05:26.440Z,13.10
2019-04-06T00:07:52.278Z,11.30
2019-04-06T00:10:18.322Z,13.40
2019-04-06T00:12:44.409Z,11.85
2019-04-06T00:15:10.558Z,11.85
2019-04-06T00:17:41.291Z,11.15
2019-04-06T00:20:07.568Z,12.37
2019-04-06T00:22:37.145Z,12.70
2019-04-06T00:25:05.034Z,12.95
2019-04-06T00:27:30.822Z,13.10
2019-04-06T00:29:56.906Z,12.57
2019-04-06T00:32:27.636Z,12.93
2019-04-06T00:34:53.498Z,12.28
2019-04-06T00:37:19.270Z,11.07
2019-04-06T00:39:45.099Z,12.33
2019-04-06T00:42:10.928Z,10.53
2019-04-06T00:44:36.759Z,11.40
2019-04-06T00:47:02.647Z,9.97
2019-04-06T00:49:30.027Z,12.23
2019-04-06T00:51:55.840Z,12.80
2019-04-06T00:54:24.863Z,12.27
2019-04-06T00:56:50.913Z,12.43
2019-04-06T00:59:19.796Z,11.75
2019-04-06T01:01:45.579Z,11.25
2019-04-06T01:04:13.909Z,12.67
2019-04-06T01:06:39.719Z,12.82
2019-04-06T01:09:08.740Z,12.23
2019-04-06T01:11:34.546Z,13.83
2019-04-06T01:14:00.751Z,12.00
2019-04-06T01:16:26.539Z,14.10
2019-04-06T01:18:52.354Z,12.20
2019-04-06T01:21:21.253Z,11.97
2019-04-06T01:23:47.092Z,12.78
2019-04-06T01:26:16.056Z,10.70
2019-04-06T01:28:42.107Z,10.45
2019-04-06T01:31:11.136Z,10.95
2019-04-06T01:33:36.939Z,10.55
2019-04-06T01:36:05.553Z,12.90
2019-04-06T01:38:31.353Z,12.88
2019-04-06T01:40:59.955Z,12.70
2019-04-06T01:43:25.803Z,12.37
2019-04-06T01:45:54.611Z,13.10
2019-04-06T01:48:20.412Z,12.23
2019-04-06T01:50:46.245Z,11.47
2019-04-06T01:53:12.317Z,12.40
2019-04-06T01:55:38.376Z,12.93
2019-04-06T01:58:05.509Z,12.35
2019-04-06T02:00:31.323Z,13.58
2019-04-06T02:03:00.051Z,11.37
2019-04-06T02:05:25.874Z,10.20
2019-04-06T02:07:54.785Z,11.50
2019-04-06T02:10:20.968Z,12.37
2019-04-06T02:12:50.135Z,11.35
2019-04-06T02:15:16.036Z,11.55
2019-04-06T02:17:44.914Z,11.40
2019-04-06T02:20:10.809Z,11.75
2019-04-06T02:22:39.591Z,11.20
2019-04-06T02:25:05.695Z,11.48
2019-04-06T02:27:31.610Z,11.35
2019-04-06T02:30:17.294Z,11.73
2019-04-06T02:33:02.104Z,11.78
2019-04-06T02:35:39.480Z,10.70
2019-04-06T02:38:10.171Z,11.57
2019-04-06T02:40:37.967Z,12.20
2019-04-06T02:43:08.612Z,11.33
2019-04-06T02:45:34.552Z,11.20
2019-04-06T02:48:00.523Z,10.23
2019-04-06T02:50:26.319Z,13.18
2019-04-06T02:52:52.132Z,12.57
2019-04-06T02:55:18.190Z,11.77
2019-04-06T02:57:44.016Z,12.25
2019-04-06T03:00:10.209Z,12.07
2019-04-06T03:02:36.124Z,12.45
2019-04-06T03:05:04.143Z,11.10
2019-04-06T03:07:29.951Z,11.80
2019-04-06T03:09:55.763Z,11.70
2019-04-06T03:12:21.618Z,12.87
2019-04-06T03:14:47.672Z,10.93
2019-04-06T03:17:13.453Z,10.93
2019-04-06T03:19:39.506Z,12.20
2019-04-06T03:22:05.601Z,11.35
2019-04-06T03:24:31.515Z,11.20
2019-04-06T03:27:01.762Z,11.80
2019-04-06T03:29:24.996Z,10.60
2019-04-06T03:31:50.915Z,11.10
2019-04-06T03:34:21.570Z,12.60
2019-04-06T03:36:44.772Z,13.22
2019-04-06T03:39:10.599Z,11.23
2019-04-06T03:41:36.419Z,10.10
2019-04-06T03:44:02.312Z,10.83
2019-04-06T03:46:28.130Z,12.50
2019-04-06T03:48:53.939Z,12.30
2019-04-06T03:51:20.025Z,12.07
2019-04-06T03:53:45.836Z,13.50
2019-04-06T03:56:11.672Z,12.40
2019-04-06T03:58:37.540Z,12.83
2019-04-06T04:01:03.597Z,11.80
2019-04-06T04:03:29.677Z,10.95
2019-04-06T04:05:55.476Z,12.70
2019-04-06T04:08:21.299Z,11.37
2019-04-06T04:10:47.994Z,12.77
2019-04-06T04:13:13.917Z,12.00
2019-04-06T04:15:39.867Z,12.00
2019-04-06T04:18:06.050Z,11.22
2019-04-06T04:20:31.906Z,13.15
2019-04-06T04:22:57.709Z,12.33
2019-04-06T04:25:23.778Z,12.77
2019-04-06T04:27:49.661Z,13.70
2019-04-06T04:30:20.536Z,15.43
2019-04-06T04:32:43.566Z,13.58
2019-04-06T04:35:09.387Z,11.68
2019-04-06T04:37:35.190Z,12.10
2019-04-06T04:40:01.300Z,11.97
2019-04-06T04:42:27.083Z,12.65
2019-04-06T04:44:52.935Z,12.33
2019-04-06T04:47:18.741Z,13.00
2019-04-06T04:49:44.555Z,14.10
2019-04-06T04:52:10.677Z,11.60
2019-04-06T04:54:36.488Z,12.40
2019-04-06T04:57:02.678Z,13.17
2019-04-06T04:59:28.772Z,11.63
2019-04-06T05:01:54.746Z,11.93
2019-04-06T05:04:20.670Z,12.25
2019-04-06T05:06:49.975Z,12.60
2019-04-06T05:09:16.063Z,13.45
2019-04-06T05:11:41.862Z,13.13
2019-04-06T05:14:45.649Z,13.13
2019-04-06T05:17:11.481Z,13.72
2019-04-06T05:19:37.572Z,13.40
2019-04-06T05:22:03.518Z,13.78
2019-04-06T05:24:29.314Z,14.33
2019-04-06T05:26:55.439Z,12.37
2019-04-06T05:29:21.361Z,13.80
2019-04-06T05:31:47.114Z,13.97
2019-04-06T05:34:12.931Z,12.60
2019-04-06T05:36:38.994Z,13.50
2019-04-06T05:39:04.895Z,12.43
2019-04-06T05:41:30.811Z,12.70
2019-04-06T05:43:56.994Z,13.00
2019-04-06T05:46:22.810Z,13.03
2019-04-06T05:48:48.897Z,12.60
2019-04-06T05:51:14.709Z,13.43
2019-04-06T05:53:40.532Z,12.83
2019-04-06T05:56:06.774Z,12.90
2019-04-06T05:58:32.633Z,12.93
2019-04-06T06:00:58.457Z,13.70
2019-04-06T06:03:24.279Z,12.33
2019-04-06T06:05:50.076Z,12.50
2019-04-06T06:08:16.136Z,13.60
2019-04-06T06:10:42.016Z,13.55
2019-04-06T06:13:08.064Z,13.70
2019-04-06T06:15:34.084Z,15.65
2019-04-06T06:18:00.251Z,14.68
2019-04-06T06:20:26.053Z,13.68
2019-04-06T06:22:51.854Z,13.60
2019-04-06T06:25:17.765Z,13.23
2019-04-06T06:27:43.867Z,14.23
2019-04-06T06:30:10.087Z,20.70
2019-04-06T06:32:35.963Z,23.00
2019-04-06T06:35:02.884Z,13.33
2019-04-06T06:37:29.060Z,14.07
2019-04-06T06:39:58.241Z,14.33
2019-04-06T06:42:24.043Z,14.30
2019-04-06T06:44:50.161Z,13.43
2019-04-06T06:47:15.969Z,14.73
2019-04-06T06:49:41.764Z,14.87
2019-04-06T06:52:10.372Z,14.57
2019-04-06T06:54:36.483Z,15.83
2019-04-06T06:57:05.587Z,20.05
2019-04-06T06:59:31.415Z,19.50
2019-04-06T07:01:57.331Z,24.97
2019-04-06T07:04:23.391Z,22.30
2019-04-06T07:06:54.000Z,21.77
2019-04-06T07:09:19.818Z,17.35
2019-04-06T07:11:46.997Z,18.23
2019-04-06T07:14:13.086Z,17.42
2019-04-06T07:16:41.896Z,16.27
2019-04-06T07:19:07.948Z,17.32
2019-04-06T07:21:33.742Z,16.05
2019-04-06T07:23:59.569Z,16.43
2019-04-06T07:26:25.592Z,18.20
2019-04-06T07:28:54.181Z,16.67
2019-04-06T07:31:20.304Z,17.50
2019-04-06T07:33:49.151Z,18.45
2019-04-06T07:36:15.372Z,18.92
2019-04-06T07:38:44.030Z,18.50
2019-04-06T07:41:09.827Z,18.73
2019-04-06T07:43:38.713Z,19.40
2019-04-06T07:46:04.553Z,18.35
2019-04-06T07:48:33.467Z,19.20
2019-04-06T07:50:59.362Z,19.07
2019-04-06T07:53:28.385Z,20.70
2019-04-06T07:55:54.488Z,20.83
2019-04-06T07:58:20.470Z,19.27
2019-04-06T08:00:46.324Z,21.10
2019-04-06T08:03:12.140Z,20.77
2019-04-06T08:05:41.039Z,20.10
2019-04-06T08:08:07.096Z,20.68
2019-04-06T08:10:36.304Z,20.17
2019-04-06T08:13:02.127Z,20.52
2019-04-06T08:15:30.989Z,18.73
2019-04-06T08:17:56.796Z,18.10
2019-04-06T08:20:22.896Z,17.90
2019-04-06T08:22:49.170Z,19.67
2019-04-06T08:25:18.377Z,18.40
2019-04-06T08:27:44.198Z,20.20
2019-04-06T08:30:12.928Z,20.40
2019-04-06T08:32:38.924Z,19.85
2019-04-06T08:35:05.723Z,21.80
2019-04-06T08:37:31.532Z,21.48
2019-04-06T08:39:57.671Z,22.03
2019-04-06T08:42:26.758Z,20.88
2019-04-06T08:44:52.847Z,21.30
2019-04-06T08:47:18.674Z,18.00
2019-04-06T08:49:44.493Z,21.10
2019-04-06T08:52:14.315Z,18.47
2019-04-06T08:54:40.548Z,20.08
2019-04-06T08:57:09.450Z,18.90
2019-04-06T08:59:35.262Z,19.23
2019-04-06T09:02:04.194Z,18.83
2019-04-06T09:04:30.206Z,20.37
2019-04-06T09:06:59.009Z,19.90
2019-04-06T09:09:25.332Z,16.97
2019-04-06T09:11:51.241Z,17.80
2019-04-06T09:14:17.647Z,19.07
2019-04-06T09:16:43.596Z,18.90
2019-04-06T09:19:09.405Z,18.90
2019-04-06T09:21:35.300Z,21.57
2019-04-06T09:24:04.190Z,22.63
2019-04-06T09:26:30.011Z,21.20
2019-04-06T09:29:00.421Z,21.00
2019-04-06T09:31:26.517Z,20.95
2019-04-06T09:33:53.804Z,22.80
2019-04-06T09:36:19.896Z,20.77
2019-04-06T09:38:48.693Z,21.40
2019-04-06T09:41:14.508Z,22.00
2019-04-06T09:43:43.327Z,22.30
2019-04-06T09:46:13.817Z,21.23
2019-04-06T09:48:50.755Z,21.57
2019-04-06T09:51:36.958Z,22.53
2019-04-06T09:54:07.820Z,21.20
2019-04-06T09:56:41.607Z,22.60
2019-04-06T09:59:35.331Z,21.33
2019-04-06T10:02:11.863Z,21.60
2019-04-06T10:04:52.019Z,20.13
2019-04-06T10:07:22.834Z,19.57
2019-04-06T10:09:50.586Z,20.50
2019-04-06T10:12:35.429Z,19.07
2019-04-06T10:15:03.513Z,22.17
2019-04-06T10:17:46.619Z,23.60
2019-04-06T10:20:17.162Z,25.37
2019-04-06T10:22:50.468Z,22.60
2019-04-06T10:25:18.223Z,25.00
2019-04-06T10:28:05.403Z,22.58
2019-04-06T10:30:39.293Z,25.05
2019-04-06T10:33:13.327Z,24.32
2019-04-06T10:35:58.035Z,24.57
2019-04-06T10:38:38.566Z,25.07
2019-04-06T10:41:12.308Z,25.80
2019-04-06T10:43:45.652Z,25.33
2019-04-06T10:46:13.323Z,41.93
2019-04-06T10:48:44.268Z,25.00
2019-04-06T10:54:12.176Z,23.07
2019-04-06T10:56:45.682Z,26.03
2019-04-06T10:59:16.418Z,24.40
2019-04-06T11:02:01.431Z,26.10
2019-04-06T11:04:41.511Z,22.27
2019-04-06T11:07:26.149Z,23.43
2019-04-06T11:09:57.225Z,21.40
2019-04-06T11:12:28.649Z,22.60
2019-04-06T11:14:56.389Z,23.90
2019-04-06T11:17:26.922Z,22.43
2019-04-06T11:20:07.012Z,22.70
2019-04-06T11:22:48.335Z,27.97
2019-04-06T11:25:16.271Z,23.80
2019-04-06T11:27:47.249Z,23.50
2019-04-06T11:30:34.899Z,23.93
2019-04-06T11:33:06.060Z,25.27
2019-04-06T11:38:23.070Z,23.67
2019-04-06T11:40:54.223Z,23.90
2019-04-06T11:43:38.914Z,20.83
2019-04-06T11:46:07.248Z,20.80
2019-04-06T11:48:51.529Z,23.27
2019-04-06T11:51:19.248Z,22.77
2019-04-06T11:53:56.667Z,24.15
2019-04-06T11:56:24.987Z,23.07
2019-04-06T11:59:11.047Z,22.20
2019-04-06T12:01:41.685Z,21.05
2019-04-06T12:04:21.719Z,21.70
2019-04-06T12:07:06.579Z,20.80
2019-04-06T12:09:37.097Z,20.77
2019-04-06T12:12:04.997Z,20.85
2019-04-06T12:14:32.935Z,20.72
2019-04-06T12:17:15.429Z,19.80
2019-04-06T12:19:55.187Z,21.13
2019-04-06T12:22:22.881Z,20.40
2019-04-06T12:25:02.581Z,21.30
2019-04-06T12:27:54.366Z,19.40
2019-04-06T12:30:22.199Z,20.97
2019-04-06T12:32:49.924Z,21.43
2019-04-06T12:35:20.761Z,20.00
2019-04-06T12:37:51.814Z,22.33
2019-04-06T12:40:32.251Z,21.50
2019-04-06T12:43:15.442Z,21.10
2019-04-06T12:45:43.229Z,20.33
2019-04-06T12:48:13.726Z,19.57
2019-04-06T12:50:57.999Z,19.13
2019-04-06T12:53:42.302Z,17.10
2019-04-06T12:56:10.486Z,20.40
2019-04-06T12:58:47.579Z,19.00
2019-04-06T13:01:18.220Z,17.67
2019-04-06T13:04:02.834Z,19.27
2019-04-06T13:06:30.929Z,17.43
2019-04-06T13:09:15.949Z,18.33
2019-04-06T13:11:46.979Z,15.83
2019-04-06T13:14:20.814Z,16.33
2019-04-06T13:16:52.638Z,16.57
2019-04-06T13:19:41.898Z,17.50
2019-04-06T13:22:26.525Z,16.27
2019-04-06T13:25:12.389Z,16.50
2019-04-06T13:27:42.984Z,16.77
2019-04-06T13:30:29.032Z,15.33
2019-04-06T13:32:57.687Z,16.40
2019-04-06T13:35:31.804Z,15.40
2019-04-06T13:38:08.882Z,15.53
2019-04-06T13:40:53.103Z,14.10
2019-04-06T13:43:39.521Z,15.07
2019-04-06T13:46:23.935Z,14.73
2019-04-06T13:48:52.146Z,13.20
2019-04-06T13:51:31.828Z,13.87
2019-04-06T13:54:08.124Z,14.10
2019-04-06T13:56:38.931Z,13.83
2019-04-06T13:59:18.584Z,15.40
2019-04-06T14:01:46.624Z,13.60
2019-04-06T14:04:17.056Z,14.70
2019-04-06T14:07:01.527Z,14.47
2019-04-06T14:09:36.546Z,14.17
2019-04-06T14:12:13.187Z,13.23
2019-04-06T14:14:57.802Z,14.90
2019-04-06T14:17:31.928Z,14.97
2019-04-06T14:19:59.654Z,13.67
2019-04-06T14:22:27.369Z,12.50
2019-04-06T14:25:00.956Z,13.43
2019-04-06T14:27:29.067Z,12.50
2019-04-06T14:30:05.824Z,13.37
2019-04-06T14:32:50.791Z,13.87
2019-04-06T14:35:19.040Z,11.80
2019-04-06T14:37:59.039Z,13.10
2019-04-06T14:40:43.859Z,13.30
2019-04-06T14:43:28.479Z,12.90
2019-04-06T14:46:14.239Z,11.40
2019-04-06T14:48:48.048Z,10.83
2019-04-06T14:51:24.855Z,13.27
2019-04-06T14:54:08.078Z,12.80
2019-04-06T14:56:42.101Z,12.07
2019-04-06T14:59:10.229Z,13.63
2019-04-06T15:01:57.836Z,13.47
2019-04-06T15:04:22.784Z,13.77
2019-04-06T15:07:11.486Z,12.67
2019-04-06T15:09:45.681Z,11.90
2019-04-06T15:12:16.710Z,12.47
2019-04-06T15:14:47.213Z,11.30
2019-04-06T15:17:18.040Z,11.43
2019-04-06T15:19:45.798Z,10.90
2019-04-06T15:22:16.333Z,11.00
2019-04-06T15:24:47.326Z,11.77
2019-04-06T15:27:30.601Z,12.20
2019-04-06T15:30:11.039Z,12.23
2019-04-06T15:32:39.105Z,10.83
2019-04-06T15:35:10.400Z,10.93
2019-04-06T15:37:38.137Z,11.53
2019-04-06T15:40:20.835Z,11.10
2019-04-06T15:43:04.096Z,12.00
2019-04-06T15:45:44.645Z,9.90
2019-04-06T15:48:37.008Z,10.70
2019-04-06T15:51:05.201Z,11.50
2019-04-06T15:53:39.875Z,12.20
2019-04-06T15:56:10.535Z,11.33
2019-04-06T15:58:38.263Z,12.03
2019-04-06T16:01:11.760Z,11.40
2019-04-06T16:03:42.670Z,12.07
2019-04-06T16:06:13.541Z,11.37
2019-04-06T16:08:41.267Z,10.10
2019-04-06T16:11:25.917Z,10.80
2019-04-06T16:14:00.456Z,10.73
2019-04-06T16:16:40.318Z,11.30
2019-04-06T16:19:08.307Z,12.13
2019-04-06T16:21:53.266Z,12.17
2019-04-06T16:24:21.845Z,10.77
2019-04-06T16:27:05.140Z,11.47
2019-04-06T16:29:35.702Z,10.70
2019-04-06T16:32:18.712Z,11.90
2019-04-06T16:34:49.686Z,10.20
2019-04-06T16:37:20.542Z,11.00
2019-04-06T16:39:51.341Z,9.10
2019-04-06T16:42:36.044Z,10.03
2019-04-06T16:45:14.696Z,9.93
2019-04-06T16:47:59.465Z,9.60
2019-04-06T16:50:39.893Z,10.10
2019-04-06T16:53:08.163Z,11.60
2019-04-06T16:55:54.633Z,10.90
2019-04-06T16:58:37.742Z,10.20
2019-04-06T17:01:21.044Z,10.27
2019-04-06T17:04:01.229Z,10.03
2019-04-06T17:06:34.986Z,10.27
2019-04-06T17:09:08.219Z,11.10
2019-04-06T17:11:47.758Z,11.20
2019-04-06T17:14:26.030Z,10.67
2019-04-06T17:17:06.336Z,11.33
2019-04-06T17:19:34.334Z,10.07
2019-04-06T17:22:07.992Z,9.00
2019-04-06T17:24:42.091Z,9.90
2019-04-06T17:27:19.179Z,8.97
2019-04-06T17:29:50.431Z,8.90
2019-04-06T17:32:22.770Z,9.17
2019-04-06T17:34:54.448Z,10.47
2019-04-06T17:37:20.884Z,8.97
2019-04-06T17:40:04.126Z,8.83
2019-04-06T17:42:34.715Z,9.50
2019-04-06T17:45:11.515Z,8.87
2019-04-06T17:47:45.224Z,10.13
2019-04-06T17:50:19.821Z,10.13
2019-04-06T17:52:50.594Z,9.70
2019-04-06T17:55:18.320Z,9.40
2019-04-06T17:57:46.288Z,11.03
2019-04-06T18:00:32.696Z,10.00
2019-04-06T18:05:55.412Z,10.87
2019-04-06T18:08:32.161Z,14.13
2019-04-06T18:11:06.285Z,15.57
2019-04-06T18:13:51.066Z,17.47
2019-04-06T18:16:18.577Z,19.13
2019-04-06T18:18:44.600Z,27.37
2019-04-06T18:21:10.405Z,27.30
2019-04-06T18:23:36.247Z,31.27
2019-04-06T18:26:02.341Z,28.50
2019-04-06T18:28:28.409Z,20.37
2019-04-06T18:30:56.140Z,21.63
2019-04-06T18:33:26.533Z,20.07
2019-04-06T18:35:52.259Z,18.77
2019-04-06T18:38:19.987Z,17.90
2019-04-06T18:40:46.114Z,17.50
2019-04-06T18:43:11.940Z,13.43
2019-04-06T18:45:37.757Z,13.80
2019-04-06T18:48:03.580Z,12.67
2019-04-06T18:50:36.717Z,12.53
2019-04-06T18:52:57.772Z,10.18
2019-04-06T18:55:24.426Z,10.88
2019-04-06T18:57:50.410Z,11.45
2019-04-06T19:00:17.291Z,12.20
2019-04-06T19:02:43.703Z,12.00
2019-04-06T19:05:09.997Z,11.03
2019-04-06T19:07:35.813Z,9.45
2019-04-06T19:10:04.624Z,9.90
2019-04-06T19:12:30.442Z,10.68
2019-04-06T19:14:56.547Z,9.67
2019-04-06T19:17:22.585Z,15.28
2019-04-06T19:19:48.865Z,9.73
2019-04-06T19:22:14.983Z,11.05
2019-04-06T19:24:41.039Z,12.00
2019-04-06T19:27:06.872Z,11.28
2019-04-06T19:29:32.974Z,14.00
2019-04-06T19:31:59.029Z,11.57
2019-04-06T19:34:25.013Z,11.35
2019-04-06T19:36:50.971Z,11.97
2019-04-06T19:39:16.868Z,11.43
2019-04-06T19:41:42.833Z,13.73
2019-04-06T19:44:09.159Z,15.20
2019-04-06T19:46:35.187Z,13.40
2019-04-06T19:49:01.258Z,13.08
2019-04-06T19:51:27.387Z,15.95
2019-04-06T19:53:53.639Z,15.32
2019-04-06T19:56:20.058Z,15.68
2019-04-06T19:58:46.426Z,14.90
2019-04-06T20:01:12.636Z,14.00
2019-04-06T20:03:41.277Z,14.38
2019-04-06T20:06:07.098Z,13.85
2019-04-06T20:08:36.269Z,13.70
2019-04-06T20:11:02.293Z,14.87
2019-04-06T20:13:28.915Z,15.57
2019-04-06T20:15:55.505Z,14.53
2019-04-06T20:18:21.760Z,13.70
2019-04-06T20:20:47.918Z,15.15
2019-04-06T20:23:14.001Z,13.25
2019-04-06T20:25:40.207Z,14.07
2019-04-06T20:28:06.641Z,14.43
2019-04-06T20:30:34.649Z,13.30
2019-04-06T20:33:00.448Z,11.85
2019-04-06T20:35:29.479Z,12.40
2019-04-06T20:37:55.506Z,12.53
2019-04-06T20:40:24.582Z,12.63
2019-04-06T20:42:50.719Z,12.28
2019-04-06T20:45:19.668Z,11.25
2019-04-06T20:47:45.754Z,14.18
2019-04-06T20:50:11.949Z,16.05
2019-04-06T20:52:37.778Z,12.88
2019-04-06T20:55:06.343Z,12.73
2019-04-06T20:57:32.189Z,11.88
2019-04-06T20:59:57.977Z,11.90
2019-04-06T21:02:25.547Z,12.80
2019-04-06T21:04:51.438Z,11.85
2019-04-06T21:07:20.655Z,13.10
2019-04-06T21:09:47.236Z,13.38
2019-04-06T21:12:15.980Z,13.35
2019-04-06T21:14:41.879Z,12.98
2019-04-06T21:17:11.647Z,13.73
2019-04-06T21:19:37.764Z,14.60
2019-04-06T21:22:04.841Z,14.40
2019-04-06T21:24:30.978Z,14.00
2019-04-06T21:26:57.122Z,13.83
2019-04-06T21:29:23.511Z,14.58
2019-04-06T21:31:49.826Z,16.10
2019-04-06T21:34:19.330Z,14.35
2019-04-06T21:36:46.196Z,13.93
2019-04-06T21:39:12.178Z,15.10
2019-04-06T21:41:38.480Z,12.97
2019-04-06T21:44:07.527Z,14.80
2019-04-06T21:46:33.671Z,13.22
2019-04-06T21:49:01.230Z,13.15
2019-04-06T21:51:27.555Z,12.93
2019-04-06T21:53:57.577Z,14.33
2019-04-06T21:56:23.487Z,14.87
2019-04-06T21:58:52.323Z,13.53
2019-04-06T22:01:19.549Z,13.30
2019-04-06T22:03:45.841Z,14.07
2019-04-06T22:06:11.915Z,13.00
2019-04-06T22:08:38.491Z,13.25
2019-04-06T22:11:04.808Z,14.53
2019-04-06T22:13:30.912Z,15.98
2019-04-06T22:15:57.243Z,12.93
2019-04-06T22:18:23.541Z,12.47
2019-04-06T22:20:52.355Z,17.17
2019-04-06T22:23:18.548Z,15.70
2019-04-06T22:25:47.575Z,16.10
2019-04-06T22:28:13.383Z,16.45
2019-04-06T22:30:43.178Z,16.90
2019-04-06T22:33:09.259Z,16.62
2019-04-06T22:35:38.393Z,15.30
2019-04-06T22:38:04.787Z,16.48
2019-04-06T22:40:30.570Z,16.03
2019-04-06T22:42:56.363Z,16.83
2019-04-06T22:45:24.217Z,15.80
2019-04-06T22:47:50.756Z,16.57
2019-04-06T22:50:17.610Z,15.93
2019-04-06T22:52:43.526Z,15.70
2019-04-06T22:55:10.170Z,16.87
2019-04-06T22:57:39.763Z,17.25
2019-04-06T23:00:08.007Z,16.90
2019-04-06T23:02:42.758Z,15.75
2019-04-06T23:05:25.577Z,17.27
2019-04-06T23:07:51.715Z,16.35
2019-04-06T23:10:18.483Z,15.45
2019-04-06T23:12:44.839Z,16.90
2019-04-06T23:15:11.821Z,16.17
2019-04-06T23:17:38.536Z,16.25
2019-04-06T23:20:04.714Z,14.75
2019-04-06T23:22:31.742Z,17.52
2019-04-06T23:24:58.031Z,16.77
2019-04-06T23:27:24.354Z,17.80
2019-04-06T23:29:50.805Z,17.52
2019-04-06T23:32:16.979Z,53.78
2019-04-06T23:34:43.101Z,24.98
2019-04-06T23:37:08.931Z,21.12
2019-04-06T23:39:34.969Z,18.07
2019-04-06T23:42:01.008Z,17.90
2019-04-06T23:44:27.070Z,16.52
2019-04-06T23:46:53.122Z,19.73
2019-04-06T23:49:19.102Z,17.92
2019-04-06T23:51:45.243Z,18.90
2019-04-06T23:54:11.101Z,19.23
2019-04-06T23:56:36.916Z,18.40
2019-04-06T23:59:03.357Z,20.40
